sensor_id;sensor_type;location;lat;lon;timestamp;P1;durP1;ratioP1;P2;durP2;ratioP2
15130;SDS011;7666;50.920;4.628;2022-10-17T00:00:40;10.90;;;9.30;;
15130;SDS011;7666;50.920;4.628;2022-10-17T00:03:26;10.23;;;9.23;;
15130;SDS011;7666;50.920;4.628;2022-10-17T00:06:13;10.83;;;9.57;;
15130;SDS011;7666;50.920;4.628;2022-10-17T00:08:59;10.20;;;8.93;;
15130;SDS011;7666;50.920;4.628;2022-10-17T00:11:45;10.80;;;9.70;;
15130;SDS011;7666;50.920;4.628;2022-10-17T00:14:31;10.17;;;9.03;;
15130;SDS011;7666;50.920;4.628;2022-10-17T00:17:17;13.17;;;9.83;;
15130;SDS011;7666;50.920;4.628;2022-10-17T00:20:03;10.53;;;9.53;;
15130;SDS011;7666;50.920;4.628;2022-10-17T00:22:50;10.87;;;9.80;;
15130;SDS011;7666;50.920;4.628;2022-10-17T00:25:36;10.47;;;9.37;;
15130;SDS011;7666;50.920;4.628;2022-10-17T00:28:22;9.77;;;8.73;;
15130;SDS011;7666;50.920;4.628;2022-10-17T00:31:07;9.53;;;8.37;;
15130;SDS011;7666;50.920;4.628;2022-10-17T00:33:53;11.80;;;9.43;;
15130;SDS011;7666;50.920;4.628;2022-10-17T00:36:39;9.63;;;8.13;;
15130;SDS011;7666;50.920;4.628;2022-10-17T00:39:25;9.43;;;8.50;;
15130;SDS011;7666;50.920;4.628;2022-10-17T00:42:11;8.37;;;7.47;;
15130;SDS011;7666;50.920;4.628;2022-10-17T00:44:59;13.00;;;7.87;;
15130;SDS011;7666;50.920;4.628;2022-10-17T00:47:50;8.87;;;7.97;;
15130;SDS011;7666;50.920;4.628;2022-10-17T00:50:40;8.97;;;8.10;;
15130;SDS011;7666;50.920;4.628;2022-10-17T00:53:30;9.40;;;7.33;;
15130;SDS011;7666;50.920;4.628;2022-10-17T00:56:17;9.77;;;8.07;;
15130;SDS011;7666;50.920;4.628;2022-10-17T00:59:04;9.83;;;7.77;;
15130;SDS011;7666;50.920;4.628;2022-10-17T01:02:01;8.43;;;7.53;;
15130;SDS011;7666;50.920;4.628;2022-10-17T01:04:50;8.33;;;7.53;;
15130;SDS011;7666;50.920;4.628;2022-10-17T01:07:39;8.50;;;7.80;;
15130;SDS011;7666;50.920;4.628;2022-10-17T01:10:29;7.63;;;6.83;;
15130;SDS011;7666;50.920;4.628;2022-10-17T01:13:41;9.03;;;6.97;;
15130;SDS011;7666;50.920;4.628;2022-10-17T01:22:51;9.53;;;7.57;;
15130;SDS011;7666;50.920;4.628;2022-10-17T01:26:17;9.57;;;8.37;;
15130;SDS011;7666;50.920;4.628;2022-10-17T01:32:15;9.80;;;7.60;;
15130;SDS011;7666;50.920;4.628;2022-10-17T01:35:08;9.67;;;7.30;;
15130;SDS011;7666;50.920;4.628;2022-10-17T01:40:56;9.90;;;7.70;;
15130;SDS011;7666;50.920;4.628;2022-10-17T01:44:04;8.37;;;7.30;;
15130;SDS011;7666;50.920;4.628;2022-10-17T01:46:58;13.57;;;8.10;;
15130;SDS011;7666;50.920;4.628;2022-10-17T01:49:50;10.10;;;7.87;;
15130;SDS011;7666;50.920;4.628;2022-10-17T01:52:40;9.03;;;8.10;;
15130;SDS011;7666;50.920;4.628;2022-10-17T01:55:31;11.37;;;7.37;;
15130;SDS011;7666;50.920;4.628;2022-10-17T01:58:34;9.27;;;7.50;;
15130;SDS011;7666;50.920;4.628;2022-10-17T02:01:24;9.50;;;6.80;;
15130;SDS011;7666;50.920;4.628;2022-10-17T02:04:13;10.53;;;7.50;;
15130;SDS011;7666;50.920;4.628;2022-10-17T02:07:10;11.07;;;7.23;;
15130;SDS011;7666;50.920;4.628;2022-10-17T02:09:57;10.97;;;7.40;;
15130;SDS011;7666;50.920;4.628;2022-10-17T02:13:01;11.20;;;7.50;;
15130;SDS011;7666;50.920;4.628;2022-10-17T02:16:05;9.93;;;7.13;;
15130;SDS011;7666;50.920;4.628;2022-10-17T02:26:00;9.10;;;6.53;;
15130;SDS011;7666;50.920;4.628;2022-10-17T02:29:27;9.70;;;7.20;;
15130;SDS011;7666;50.920;4.628;2022-10-17T02:32:19;12.17;;;6.53;;
15130;SDS011;7666;50.920;4.628;2022-10-17T02:35:12;9.70;;;6.73;;
15130;SDS011;7666;50.920;4.628;2022-10-17T02:37:59;9.13;;;7.07;;
15130;SDS011;7666;50.920;4.628;2022-10-17T02:40:48;8.77;;;7.03;;
15130;SDS011;7666;50.920;4.628;2022-10-17T02:43:37;8.87;;;6.50;;
15130;SDS011;7666;50.920;4.628;2022-10-17T02:46:23;10.03;;;6.57;;
15130;SDS011;7666;50.920;4.628;2022-10-17T02:49:22;7.43;;;6.57;;
15130;SDS011;7666;50.920;4.628;2022-10-17T02:55:27;7.33;;;6.07;;
15130;SDS011;7666;50.920;4.628;2022-10-17T02:58:19;8.63;;;6.50;;
15130;SDS011;7666;50.920;4.628;2022-10-17T03:01:13;7.00;;;6.33;;
15130;SDS011;7666;50.920;4.628;2022-10-17T03:04:04;13.60;;;6.70;;
15130;SDS011;7666;50.920;4.628;2022-10-17T03:06:54;7.93;;;6.37;;
15130;SDS011;7666;50.920;4.628;2022-10-17T03:09:40;9.03;;;6.43;;
15130;SDS011;7666;50.920;4.628;2022-10-17T03:12:26;6.83;;;6.23;;
15130;SDS011;7666;50.920;4.628;2022-10-17T03:15:12;7.60;;;6.23;;
15130;SDS011;7666;50.920;4.628;2022-10-17T03:17:59;7.97;;;6.50;;
15130;SDS011;7666;50.920;4.628;2022-10-17T03:20:45;12.63;;;6.03;;
15130;SDS011;7666;50.920;4.628;2022-10-17T03:23:31;7.97;;;6.53;;
15130;SDS011;7666;50.920;4.628;2022-10-17T03:26:17;7.77;;;6.57;;
15130;SDS011;7666;50.920;4.628;2022-10-17T03:29:03;7.47;;;6.10;;
15130;SDS011;7666;50.920;4.628;2022-10-17T03:31:48;7.37;;;6.03;;
15130;SDS011;7666;50.920;4.628;2022-10-17T03:34:34;6.93;;;5.80;;
15130;SDS011;7666;50.920;4.628;2022-10-17T03:37:20;7.50;;;5.90;;
15130;SDS011;7666;50.920;4.628;2022-10-17T03:40:06;9.07;;;6.00;;
15130;SDS011;7666;50.920;4.628;2022-10-17T03:42:53;8.83;;;6.00;;
15130;SDS011;7666;50.920;4.628;2022-10-17T03:45:38;7.40;;;6.17;;
15130;SDS011;7666;50.920;4.628;2022-10-17T03:48:25;8.27;;;5.87;;
15130;SDS011;7666;50.920;4.628;2022-10-17T03:51:12;7.47;;;5.73;;
15130;SDS011;7666;50.920;4.628;2022-10-17T03:53:57;6.43;;;5.80;;
15130;SDS011;7666;50.920;4.628;2022-10-17T03:56:43;10.13;;;5.60;;
15130;SDS011;7666;50.920;4.628;2022-10-17T03:59:29;9.20;;;6.10;;
15130;SDS011;7666;50.920;4.628;2022-10-17T04:02:15;7.73;;;5.80;;
15130;SDS011;7666;50.920;4.628;2022-10-17T04:05:01;6.93;;;6.23;;
15130;SDS011;7666;50.920;4.628;2022-10-17T04:07:47;8.63;;;5.70;;
15130;SDS011;7666;50.920;4.628;2022-10-17T04:10:33;6.17;;;5.57;;
15130;SDS011;7666;50.920;4.628;2022-10-17T04:13:19;9.23;;;5.80;;
15130;SDS011;7666;50.920;4.628;2022-10-17T04:16:07;8.90;;;5.80;;
15130;SDS011;7666;50.920;4.628;2022-10-17T04:18:57;9.27;;;5.50;;
15130;SDS011;7666;50.920;4.628;2022-10-17T04:21:44;7.17;;;5.60;;
15130;SDS011;7666;50.920;4.628;2022-10-17T04:24:30;7.67;;;6.07;;
15130;SDS011;7666;50.920;4.628;2022-10-17T04:27:16;7.47;;;5.60;;
15130;SDS011;7666;50.920;4.628;2022-10-17T04:30:02;7.37;;;5.43;;
15130;SDS011;7666;50.920;4.628;2022-10-17T04:32:48;5.83;;;5.30;;
15130;SDS011;7666;50.920;4.628;2022-10-17T04:35:35;6.80;;;5.40;;
15130;SDS011;7666;50.920;4.628;2022-10-17T04:38:21;10.93;;;6.13;;
15130;SDS011;7666;50.920;4.628;2022-10-17T04:41:09;11.53;;;5.60;;
15130;SDS011;7666;50.920;4.628;2022-10-17T04:43:56;9.73;;;5.17;;
15130;SDS011;7666;50.920;4.628;2022-10-17T04:46:42;9.93;;;5.50;;
15130;SDS011;7666;50.920;4.628;2022-10-17T04:49:28;10.27;;;5.20;;
15130;SDS011;7666;50.920;4.628;2022-10-17T04:52:14;7.13;;;4.93;;
15130;SDS011;7666;50.920;4.628;2022-10-17T04:55:00;7.20;;;5.00;;
15130;SDS011;7666;50.920;4.628;2022-10-17T04:57:46;8.17;;;5.37;;
15130;SDS011;7666;50.920;4.628;2022-10-17T05:00:32;8.53;;;5.27;;
15130;SDS011;7666;50.920;4.628;2022-10-17T05:03:18;6.73;;;5.37;;
15130;SDS011;7666;50.920;4.628;2022-10-17T05:06:07;5.97;;;4.90;;
15130;SDS011;7666;50.920;4.628;2022-10-17T05:08:55;9.77;;;5.43;;
15130;SDS011;7666;50.920;4.628;2022-10-17T05:11:44;6.10;;;5.07;;
15130;SDS011;7666;50.920;4.628;2022-10-17T05:14:29;7.53;;;5.30;;
15130;SDS011;7666;50.920;4.628;2022-10-17T05:17:15;7.00;;;5.43;;
15130;SDS011;7666;50.920;4.628;2022-10-17T05:20:01;7.87;;;5.30;;
15130;SDS011;7666;50.920;4.628;2022-10-17T05:22:48;7.27;;;5.33;;
15130;SDS011;7666;50.920;4.628;2022-10-17T05:25:34;6.87;;;5.30;;
15130;SDS011;7666;50.920;4.628;2022-10-17T05:28:20;8.20;;;4.97;;
15130;SDS011;7666;50.920;4.628;2022-10-17T05:31:07;5.07;;;4.50;;
15130;SDS011;7666;50.920;4.628;2022-10-17T05:33:55;6.57;;;4.83;;
15130;SDS011;7666;50.920;4.628;2022-10-17T05:36:44;7.80;;;5.20;;
15130;SDS011;7666;50.920;4.628;2022-10-17T05:39:30;5.13;;;4.63;;
15130;SDS011;7666;50.920;4.628;2022-10-17T05:42:16;8.97;;;5.13;;
15130;SDS011;7666;50.920;4.628;2022-10-17T05:45:02;6.70;;;4.57;;
15130;SDS011;7666;50.920;4.628;2022-10-17T05:47:48;6.53;;;5.10;;
15130;SDS011;7666;50.920;4.628;2022-10-17T05:50:34;6.33;;;4.73;;
15130;SDS011;7666;50.920;4.628;2022-10-17T05:53:21;6.60;;;4.57;;
15130;SDS011;7666;50.920;4.628;2022-10-17T05:56:07;6.37;;;4.87;;
15130;SDS011;7666;50.920;4.628;2022-10-17T05:58:54;6.67;;;4.60;;
15130;SDS011;7666;50.920;4.628;2022-10-17T06:01:40;8.27;;;4.43;;
15130;SDS011;7666;50.920;4.628;2022-10-17T06:04:26;8.50;;;5.10;;
15130;SDS011;7666;50.920;4.628;2022-10-17T06:07:13;7.53;;;4.60;;
15130;SDS011;7666;50.920;4.628;2022-10-17T06:09:59;6.13;;;4.13;;
15130;SDS011;7666;50.920;4.628;2022-10-17T06:12:45;8.70;;;4.77;;
15130;SDS011;7666;50.920;4.628;2022-10-17T06:15:31;6.97;;;4.37;;
15130;SDS011;7666;50.920;4.628;2022-10-17T06:18:17;6.00;;;4.87;;
15130;SDS011;7666;50.920;4.628;2022-10-17T06:21:04;6.87;;;4.20;;
15130;SDS011;7666;50.920;4.628;2022-10-17T06:23:52;7.43;;;4.50;;
15130;SDS011;7666;50.920;4.628;2022-10-17T06:26:38;6.77;;;4.30;;
15130;SDS011;7666;50.920;4.628;2022-10-17T06:29:24;5.33;;;4.13;;
15130;SDS011;7666;50.920;4.628;2022-10-17T06:32:10;4.70;;;3.80;;
15130;SDS011;7666;50.920;4.628;2022-10-17T06:34:56;6.00;;;3.90;;
15130;SDS011;7666;50.920;4.628;2022-10-17T06:37:42;4.73;;;3.90;;
15130;SDS011;7666;50.920;4.628;2022-10-17T06:40:28;4.03;;;3.50;;
15130;SDS011;7666;50.920;4.628;2022-10-17T06:43:14;4.90;;;3.33;;
15130;SDS011;7666;50.920;4.628;2022-10-17T06:46:00;6.30;;;3.80;;
15130;SDS011;7666;50.920;4.628;2022-10-17T06:48:46;5.83;;;3.37;;
15130;SDS011;7666;50.920;4.628;2022-10-17T06:51:35;6.00;;;3.90;;
15130;SDS011;7666;50.920;4.628;2022-10-17T06:54:22;8.87;;;3.70;;
15130;SDS011;7666;50.920;4.628;2022-10-17T06:57:07;4.83;;;3.97;;
15130;SDS011;7666;50.920;4.628;2022-10-17T06:59:53;7.30;;;3.63;;
15130;SDS011;7666;50.920;4.628;2022-10-17T07:02:42;6.90;;;3.83;;
15130;SDS011;7666;50.920;4.628;2022-10-17T07:05:28;7.50;;;3.83;;
15130;SDS011;7666;50.920;4.628;2022-10-17T07:08:14;9.67;;;3.93;;
15130;SDS011;7666;50.920;4.628;2022-10-17T07:11:08;8.60;;;3.67;;
15130;SDS011;7666;50.920;4.628;2022-10-17T07:13:55;9.53;;;3.70;;
15130;SDS011;7666;50.920;4.628;2022-10-17T07:16:41;6.97;;;3.33;;
15130;SDS011;7666;50.920;4.628;2022-10-17T07:19:27;6.53;;;3.47;;
15130;SDS011;7666;50.920;4.628;2022-10-17T07:22:13;6.40;;;4.03;;
15130;SDS011;7666;50.920;4.628;2022-10-17T07:24:59;4.87;;;3.53;;
15130;SDS011;7666;50.920;4.628;2022-10-17T07:27:47;6.07;;;3.43;;
15130;SDS011;7666;50.920;4.628;2022-10-17T07:30:33;7.60;;;3.73;;
15130;SDS011;7666;50.920;4.628;2022-10-17T07:33:19;7.47;;;3.83;;
15130;SDS011;7666;50.920;4.628;2022-10-17T07:36:05;7.67;;;4.20;;
15130;SDS011;7666;50.920;4.628;2022-10-17T07:38:52;7.70;;;3.80;;
15130;SDS011;7666;50.920;4.628;2022-10-17T07:41:37;7.07;;;3.77;;
15130;SDS011;7666;50.920;4.628;2022-10-17T07:44:23;7.73;;;3.30;;
15130;SDS011;7666;50.920;4.628;2022-10-17T07:47:09;6.20;;;3.80;;
15130;SDS011;7666;50.920;4.628;2022-10-17T07:49:56;5.57;;;3.73;;
15130;SDS011;7666;50.920;4.628;2022-10-17T07:52:42;6.53;;;3.73;;
15130;SDS011;7666;50.920;4.628;2022-10-17T07:55:28;5.50;;;3.67;;
15130;SDS011;7666;50.920;4.628;2022-10-17T07:58:14;6.50;;;4.00;;
15130;SDS011;7666;50.920;4.628;2022-10-17T08:01:01;6.20;;;3.70;;
15130;SDS011;7666;50.920;4.628;2022-10-17T08:03:48;7.63;;;4.20;;
15130;SDS011;7666;50.920;4.628;2022-10-17T08:06:34;8.60;;;3.97;;
15130;SDS011;7666;50.920;4.628;2022-10-17T08:09:20;6.60;;;4.07;;
15130;SDS011;7666;50.920;4.628;2022-10-17T08:12:06;6.93;;;4.17;;
15130;SDS011;7666;50.920;4.628;2022-10-17T08:14:52;6.93;;;3.80;;
15130;SDS011;7666;50.920;4.628;2022-10-17T08:17:38;5.97;;;4.33;;
15130;SDS011;7666;50.920;4.628;2022-10-17T08:20:24;7.80;;;4.37;;
15130;SDS011;7666;50.920;4.628;2022-10-17T08:23:11;7.67;;;4.40;;
15130;SDS011;7666;50.920;4.628;2022-10-17T08:26:00;5.37;;;4.23;;
15130;SDS011;7666;50.920;4.628;2022-10-17T08:28:47;6.47;;;4.63;;
15130;SDS011;7666;50.920;4.628;2022-10-17T08:31:34;7.37;;;4.40;;
15130;SDS011;7666;50.920;4.628;2022-10-17T08:34:20;10.70;;;5.20;;
15130;SDS011;7666;50.920;4.628;2022-10-17T08:37:05;9.07;;;5.13;;
15130;SDS011;7666;50.920;4.628;2022-10-17T08:39:51;11.57;;;5.53;;
15130;SDS011;7666;50.920;4.628;2022-10-17T08:45:31;9.23;;;5.40;;
15130;SDS011;7666;50.920;4.628;2022-10-17T08:48:37;10.93;;;5.00;;
15130;SDS011;7666;50.920;4.628;2022-10-17T08:51:31;7.97;;;5.20;;
15130;SDS011;7666;50.920;4.628;2022-10-17T08:54:23;9.00;;;5.60;;
15130;SDS011;7666;50.920;4.628;2022-10-17T08:57:15;7.63;;;5.53;;
15130;SDS011;7666;50.920;4.628;2022-10-17T09:00:02;7.37;;;4.77;;
15130;SDS011;7666;50.920;4.628;2022-10-17T09:20:51;6.07;;;4.93;;
15130;SDS011;7666;50.920;4.628;2022-10-17T09:23:48;5.63;;;4.67;;
15130;SDS011;7666;50.920;4.628;2022-10-17T09:26:37;6.93;;;5.00;;
15130;SDS011;7666;50.920;4.628;2022-10-17T09:29:25;8.03;;;4.87;;
15130;SDS011;7666;50.920;4.628;2022-10-17T09:32:16;7.53;;;5.03;;
15130;SDS011;7666;50.920;4.628;2022-10-17T09:35:07;10.60;;;5.60;;
15130;SDS011;7666;50.920;4.628;2022-10-17T09:37:58;7.00;;;5.23;;
15130;SDS011;7666;50.920;4.628;2022-10-17T09:40:44;10.13;;;5.50;;
15130;SDS011;7666;50.920;4.628;2022-10-17T09:43:34;8.73;;;5.80;;
15130;SDS011;7666;50.920;4.628;2022-10-17T09:46:24;11.47;;;5.63;;
15130;SDS011;7666;50.920;4.628;2022-10-17T09:49:18;7.50;;;5.83;;
15130;SDS011;7666;50.920;4.628;2022-10-17T09:52:33;10.97;;;5.83;;
15130;SDS011;7666;50.920;4.628;2022-10-17T09:58:39;8.57;;;5.60;;
15130;SDS011;7666;50.920;4.628;2022-10-17T10:01:30;8.87;;;5.50;;
15130;SDS011;7666;50.920;4.628;2022-10-17T10:04:16;8.43;;;5.67;;
15130;SDS011;7666;50.920;4.628;2022-10-17T10:07:03;7.23;;;5.57;;
15130;SDS011;7666;50.920;4.628;2022-10-17T10:09:51;8.23;;;6.03;;
15130;SDS011;7666;50.920;4.628;2022-10-17T10:12:37;10.40;;;5.17;;
15130;SDS011;7666;50.920;4.628;2022-10-17T10:15:34;8.47;;;5.80;;
15130;SDS011;7666;50.920;4.628;2022-10-17T10:18:27;6.60;;;5.83;;
15130;SDS011;7666;50.920;4.628;2022-10-17T10:21:20;8.47;;;5.63;;
15130;SDS011;7666;50.920;4.628;2022-10-17T10:24:11;9.27;;;5.33;;
15130;SDS011;7666;50.920;4.628;2022-10-17T10:26:59;5.77;;;5.23;;
15130;SDS011;7666;50.920;4.628;2022-10-17T10:29:48;5.77;;;5.17;;
15130;SDS011;7666;50.920;4.628;2022-10-17T10:32:35;10.87;;;5.70;;
15130;SDS011;7666;50.920;4.628;2022-10-17T10:35:32;9.50;;;5.80;;
15130;SDS011;7666;50.920;4.628;2022-10-17T10:38:20;6.43;;;5.33;;
15130;SDS011;7666;50.920;4.628;2022-10-17T10:41:07;7.57;;;5.77;;
15130;SDS011;7666;50.920;4.628;2022-10-17T10:43:55;9.57;;;5.80;;
15130;SDS011;7666;50.920;4.628;2022-10-17T10:46:41;7.10;;;5.60;;
15130;SDS011;7666;50.920;4.628;2022-10-17T10:49:28;10.43;;;6.43;;
15130;SDS011;7666;50.920;4.628;2022-10-17T10:52:49;8.77;;;6.00;;
15130;SDS011;7666;50.920;4.628;2022-10-17T10:55:36;9.80;;;6.10;;
15130;SDS011;7666;50.920;4.628;2022-10-17T10:58:31;10.63;;;6.57;;
15130;SDS011;7666;50.920;4.628;2022-10-17T11:04:37;8.70;;;5.77;;
15130;SDS011;7666;50.920;4.628;2022-10-17T11:13:22;10.00;;;6.37;;
15130;SDS011;7666;50.920;4.628;2022-10-17T11:16:16;10.00;;;5.80;;
15130;SDS011;7666;50.920;4.628;2022-10-17T11:19:24;11.17;;;6.93;;
15130;SDS011;7666;50.920;4.628;2022-10-17T11:22:25;8.70;;;6.57;;
15130;SDS011;7666;50.920;4.628;2022-10-17T11:28:17;10.07;;;6.40;;
15130;SDS011;7666;50.920;4.628;2022-10-17T11:31:13;8.70;;;6.03;;
15130;SDS011;7666;50.920;4.628;2022-10-17T11:34:06;7.70;;;5.60;;
15130;SDS011;7666;50.920;4.628;2022-10-17T11:36:58;8.40;;;5.77;;
15130;SDS011;7666;50.920;4.628;2022-10-17T11:40:03;8.03;;;5.70;;
15130;SDS011;7666;50.920;4.628;2022-10-17T11:43:00;8.50;;;5.40;;
15130;SDS011;7666;50.920;4.628;2022-10-17T11:45:51;8.33;;;5.47;;
15130;SDS011;7666;50.920;4.628;2022-10-17T11:51:45;9.13;;;5.30;;
15130;SDS011;7666;50.920;4.628;2022-10-17T11:54:53;10.03;;;6.03;;
15130;SDS011;7666;50.920;4.628;2022-10-17T11:57:50;7.67;;;5.20;;
15130;SDS011;7666;50.920;4.628;2022-10-17T12:07:17;8.03;;;5.33;;
15130;SDS011;7666;50.920;4.628;2022-10-17T12:21:56;10.83;;;6.53;;
15130;SDS011;7666;50.920;4.628;2022-10-17T12:24:53;7.27;;;5.50;;
15130;SDS011;7666;50.920;4.628;2022-10-17T12:27:44;8.77;;;5.80;;
15130;SDS011;7666;50.920;4.628;2022-10-17T12:30:32;7.80;;;6.30;;
15130;SDS011;7666;50.920;4.628;2022-10-17T12:33:24;9.67;;;5.80;;
15130;SDS011;7666;50.920;4.628;2022-10-17T12:41:59;7.87;;;6.80;;
15130;SDS011;7666;50.920;4.628;2022-10-17T12:44:45;6.93;;;6.07;;
15130;SDS011;7666;50.920;4.628;2022-10-17T12:47:36;12.73;;;7.40;;
15130;SDS011;7666;50.920;4.628;2022-10-17T12:56:44;13.77;;;8.03;;
15130;SDS011;7666;50.920;4.628;2022-10-17T12:59:32;11.47;;;6.90;;
15130;SDS011;7666;50.920;4.628;2022-10-17T13:02:19;10.53;;;6.50;;
15130;SDS011;7666;50.920;4.628;2022-10-17T13:05:15;15.13;;;7.83;;
15130;SDS011;7666;50.920;4.628;2022-10-17T13:08:18;12.67;;;7.20;;
15130;SDS011;7666;50.920;4.628;2022-10-17T13:11:07;9.10;;;6.47;;
15130;SDS011;7666;50.920;4.628;2022-10-17T13:13:56;10.37;;;7.13;;
15130;SDS011;7666;50.920;4.628;2022-10-17T13:16:55;9.67;;;7.43;;
15130;SDS011;7666;50.920;4.628;2022-10-17T13:19:43;12.00;;;7.53;;
15130;SDS011;7666;50.920;4.628;2022-10-17T13:22:30;9.90;;;7.37;;
15130;SDS011;7666;50.920;4.628;2022-10-17T13:25:18;11.47;;;6.90;;
15130;SDS011;7666;50.920;4.628;2022-10-17T13:28:06;9.03;;;7.00;;
15130;SDS011;7666;50.920;4.628;2022-10-17T13:30:57;8.53;;;7.20;;
15130;SDS011;7666;50.920;4.628;2022-10-17T13:33:43;9.53;;;7.00;;
15130;SDS011;7666;50.920;4.628;2022-10-17T13:36:29;11.30;;;6.57;;
15130;SDS011;7666;50.920;4.628;2022-10-17T13:39:17;10.80;;;6.87;;
15130;SDS011;7666;50.920;4.628;2022-10-17T13:42:12;8.83;;;5.90;;
15130;SDS011;7666;50.920;4.628;2022-10-17T13:45:09;12.40;;;6.33;;
15130;SDS011;7666;50.920;4.628;2022-10-17T13:48:16;9.33;;;6.10;;
15130;SDS011;7666;50.920;4.628;2022-10-17T13:51:12;9.67;;;6.10;;
15130;SDS011;7666;50.920;4.628;2022-10-17T13:53:58;7.07;;;5.83;;
15130;SDS011;7666;50.920;4.628;2022-10-17T13:56:44;9.57;;;6.30;;
15130;SDS011;7666;50.920;4.628;2022-10-17T13:59:37;8.83;;;5.67;;
15130;SDS011;7666;50.920;4.628;2022-10-17T14:02:26;7.03;;;4.77;;
15130;SDS011;7666;50.920;4.628;2022-10-17T14:05:16;6.53;;;4.90;;
15130;SDS011;7666;50.920;4.628;2022-10-17T14:08:03;7.73;;;5.30;;
15130;SDS011;7666;50.920;4.628;2022-10-17T14:10:49;6.57;;;4.40;;
15130;SDS011;7666;50.920;4.628;2022-10-17T14:13:35;5.77;;;4.30;;
15130;SDS011;7666;50.920;4.628;2022-10-17T14:16:22;7.33;;;4.20;;
15130;SDS011;7666;50.920;4.628;2022-10-17T14:19:25;6.77;;;4.20;;
15130;SDS011;7666;50.920;4.628;2022-10-17T14:22:15;7.67;;;3.77;;
15130;SDS011;7666;50.920;4.628;2022-10-17T14:25:04;5.50;;;3.90;;
15130;SDS011;7666;50.920;4.628;2022-10-17T14:27:54;8.23;;;4.57;;
15130;SDS011;7666;50.920;4.628;2022-10-17T14:31:07;6.57;;;3.83;;
15130;SDS011;7666;50.920;4.628;2022-10-17T14:33:58;7.23;;;4.20;;
15130;SDS011;7666;50.920;4.628;2022-10-17T14:36:46;6.63;;;4.23;;
15130;SDS011;7666;50.920;4.628;2022-10-17T14:39:36;6.67;;;3.97;;
15130;SDS011;7666;50.920;4.628;2022-10-17T14:42:22;4.10;;;3.70;;
15130;SDS011;7666;50.920;4.628;2022-10-17T14:45:13;7.60;;;3.60;;
15130;SDS011;7666;50.920;4.628;2022-10-17T14:51:09;3.63;;;3.00;;
15130;SDS011;7666;50.920;4.628;2022-10-17T14:54:20;8.10;;;4.07;;
15130;SDS011;7666;50.920;4.628;2022-10-17T14:57:43;6.60;;;3.67;;
15130;SDS011;7666;50.920;4.628;2022-10-17T15:00:27;6.73;;;3.90;;
15130;SDS011;7666;50.920;4.628;2022-10-17T15:03:13;5.57;;;3.43;;
15130;SDS011;7666;50.920;4.628;2022-10-17T15:06:07;5.37;;;3.57;;
15130;SDS011;7666;50.920;4.628;2022-10-17T15:09:05;9.37;;;3.80;;
15130;SDS011;7666;50.920;4.628;2022-10-17T15:11:51;4.77;;;3.60;;
15130;SDS011;7666;50.920;4.628;2022-10-17T15:14:37;6.67;;;3.70;;
15130;SDS011;7666;50.920;4.628;2022-10-17T15:17:27;4.70;;;3.57;;
15130;SDS011;7666;50.920;4.628;2022-10-17T15:20:15;4.73;;;3.37;;
15130;SDS011;7666;50.920;4.628;2022-10-17T15:23:02;4.37;;;3.60;;
15130;SDS011;7666;50.920;4.628;2022-10-17T15:25:48;5.53;;;3.90;;
15130;SDS011;7666;50.920;4.628;2022-10-17T15:28:34;5.57;;;3.40;;
15130;SDS011;7666;50.920;4.628;2022-10-17T15:31:20;7.10;;;3.70;;
15130;SDS011;7666;50.920;4.628;2022-10-17T15:34:10;5.60;;;3.63;;
15130;SDS011;7666;50.920;4.628;2022-10-17T15:36:56;5.23;;;3.60;;
15130;SDS011;7666;50.920;4.628;2022-10-17T15:39:43;4.60;;;3.37;;
15130;SDS011;7666;50.920;4.628;2022-10-17T15:42:30;7.10;;;3.80;;
15130;SDS011;7666;50.920;4.628;2022-10-17T15:45:17;8.20;;;4.07;;
15130;SDS011;7666;50.920;4.628;2022-10-17T15:48:04;9.70;;;3.37;;
15130;SDS011;7666;50.920;4.628;2022-10-17T15:50:51;7.77;;;3.50;;
15130;SDS011;7666;50.920;4.628;2022-10-17T15:53:37;4.03;;;3.10;;
15130;SDS011;7666;50.920;4.628;2022-10-17T15:56:25;7.00;;;3.40;;
15130;SDS011;7666;50.920;4.628;2022-10-17T15:59:15;6.53;;;3.37;;
15130;SDS011;7666;50.920;4.628;2022-10-17T16:02:08;6.03;;;3.20;;
15130;SDS011;7666;50.920;4.628;2022-10-17T16:04:57;4.77;;;3.43;;
15130;SDS011;7666;50.920;4.628;2022-10-17T16:07:44;4.50;;;3.20;;
15130;SDS011;7666;50.920;4.628;2022-10-17T16:10:31;7.43;;;3.50;;
15130;SDS011;7666;50.920;4.628;2022-10-17T16:13:18;5.20;;;3.73;;
15130;SDS011;7666;50.920;4.628;2022-10-17T16:16:08;4.23;;;3.77;;
15130;SDS011;7666;50.920;4.628;2022-10-17T16:18:56;6.93;;;3.77;;
15130;SDS011;7666;50.920;4.628;2022-10-17T16:21:42;5.77;;;3.27;;
15130;SDS011;7666;50.920;4.628;2022-10-17T16:24:29;3.03;;;2.60;;
15130;SDS011;7666;50.920;4.628;2022-10-17T16:27:14;6.23;;;3.40;;
15130;SDS011;7666;50.920;4.628;2022-10-17T16:30:01;7.67;;;3.40;;
15130;SDS011;7666;50.920;4.628;2022-10-17T16:32:48;5.73;;;3.10;;
15130;SDS011;7666;50.920;4.628;2022-10-17T16:35:34;6.43;;;3.50;;
15130;SDS011;7666;50.920;4.628;2022-10-17T16:38:20;8.87;;;3.97;;
15130;SDS011;7666;50.920;4.628;2022-10-17T16:41:13;6.33;;;3.80;;
15130;SDS011;7666;50.920;4.628;2022-10-17T16:44:10;11.03;;;3.70;;
15130;SDS011;7666;50.920;4.628;2022-10-17T16:46:59;8.37;;;3.80;;
15130;SDS011;7666;50.920;4.628;2022-10-17T16:49:45;7.73;;;4.47;;
15130;SDS011;7666;50.920;4.628;2022-10-17T16:52:31;7.47;;;4.60;;
15130;SDS011;7666;50.920;4.628;2022-10-17T16:55:16;7.57;;;4.57;;
15130;SDS011;7666;50.920;4.628;2022-10-17T16:58:03;6.07;;;4.70;;
15130;SDS011;7666;50.920;4.628;2022-10-17T17:00:49;5.47;;;4.63;;
15130;SDS011;7666;50.920;4.628;2022-10-17T17:03:35;8.50;;;5.13;;
15130;SDS011;7666;50.920;4.628;2022-10-17T17:06:23;9.43;;;5.47;;
15130;SDS011;7666;50.920;4.628;2022-10-17T17:09:11;10.70;;;5.47;;
15130;SDS011;7666;50.920;4.628;2022-10-17T17:11:57;8.23;;;5.40;;
15130;SDS011;7666;50.920;4.628;2022-10-17T17:14:43;8.87;;;6.30;;
15130;SDS011;7666;50.920;4.628;2022-10-17T17:17:29;8.30;;;6.50;;
15130;SDS011;7666;50.920;4.628;2022-10-17T17:20:15;8.43;;;6.57;;
15130;SDS011;7666;50.920;4.628;2022-10-17T17:23:01;8.70;;;6.77;;
15130;SDS011;7666;50.920;4.628;2022-10-17T17:25:47;7.50;;;6.37;;
15130;SDS011;7666;50.920;4.628;2022-10-17T17:28:35;7.90;;;6.57;;
15130;SDS011;7666;50.920;4.628;2022-10-17T17:31:23;11.23;;;6.70;;
15130;SDS011;7666;50.920;4.628;2022-10-17T17:34:10;10.53;;;6.07;;
15130;SDS011;7666;50.920;4.628;2022-10-17T17:36:56;10.57;;;6.73;;
15130;SDS011;7666;50.920;4.628;2022-10-17T17:39:42;10.07;;;6.00;;
15130;SDS011;7666;50.920;4.628;2022-10-17T17:42:28;7.93;;;5.00;;
15130;SDS011;7666;50.920;4.628;2022-10-17T17:45:14;7.57;;;4.40;;
15130;SDS011;7666;50.920;4.628;2022-10-17T17:48:00;6.90;;;4.33;;
15130;SDS011;7666;50.920;4.628;2022-10-17T17:50:46;4.90;;;3.80;;
15130;SDS011;7666;50.920;4.628;2022-10-17T17:53:33;6.73;;;4.10;;
15130;SDS011;7666;50.920;4.628;2022-10-17T17:56:23;6.53;;;4.07;;
15130;SDS011;7666;50.920;4.628;2022-10-17T17:59:11;5.47;;;4.20;;
15130;SDS011;7666;50.920;4.628;2022-10-17T18:01:57;6.27;;;4.53;;
15130;SDS011;7666;50.920;4.628;2022-10-17T18:04:43;6.50;;;4.17;;
15130;SDS011;7666;50.920;4.628;2022-10-17T18:07:29;4.90;;;3.73;;
15130;SDS011;7666;50.920;4.628;2022-10-17T18:10:15;7.03;;;4.20;;
15130;SDS011;7666;50.920;4.628;2022-10-17T18:13:01;6.10;;;3.70;;
15130;SDS011;7666;50.920;4.628;2022-10-17T18:15:47;6.83;;;3.80;;
15130;SDS011;7666;50.920;4.628;2022-10-17T18:18:36;6.67;;;4.20;;
15130;SDS011;7666;50.920;4.628;2022-10-17T18:21:22;5.87;;;3.80;;
15130;SDS011;7666;50.920;4.628;2022-10-17T18:24:08;6.70;;;3.33;;
15130;SDS011;7666;50.920;4.628;2022-10-17T18:26:55;6.83;;;3.50;;
15130;SDS011;7666;50.920;4.628;2022-10-17T18:29:44;5.73;;;3.47;;
15130;SDS011;7666;50.920;4.628;2022-10-17T18:32:33;6.37;;;3.57;;
15130;SDS011;7666;50.920;4.628;2022-10-17T18:35:18;4.33;;;3.23;;
15130;SDS011;7666;50.920;4.628;2022-10-17T18:38:05;7.30;;;3.83;;
15130;SDS011;7666;50.920;4.628;2022-10-17T18:41:00;4.23;;;3.70;;
15130;SDS011;7666;50.920;4.628;2022-10-17T18:43:56;4.90;;;3.47;;
15130;SDS011;7666;50.920;4.628;2022-10-17T18:46:42;7.40;;;3.20;;
15130;SDS011;7666;50.920;4.628;2022-10-17T18:49:29;3.67;;;3.03;;